createdAt,value
2023-03-27T00:01:27.733Z,98820.83
2023-03-27T00:03:55.913Z,98820.49
2023-03-27T00:06:25.386Z,98820.86
2023-03-27T00:08:53.630Z,98822.07
2023-03-27T00:11:25.003Z,98822.94
2023-03-27T00:13:55.584Z,98817.65
2023-03-27T00:16:26.755Z,98814.60
2023-03-27T00:18:55.543Z,98813.75
2023-03-27T00:21:24.585Z,98816.13
2023-03-27T00:23:54.705Z,98820.75
2023-03-27T00:26:23.048Z,98816.98
2023-03-27T00:28:51.267Z,98816.29
2023-03-27T00:31:19.439Z,98817.98
2023-03-27T00:33:47.402Z,98814.33
2023-03-27T00:36:15.504Z,98815.14
2023-03-27T00:38:43.925Z,98814.77
2023-03-27T00:41:12.816Z,98813.00
2023-03-27T00:43:43.929Z,98815.61
2023-03-27T00:46:15.526Z,98810.56
2023-03-27T00:48:48.322Z,98805.02
2023-03-27T00:51:18.022Z,98801.09
2023-03-27T00:53:47.715Z,98798.52
2023-03-27T00:56:16.684Z,98806.04
2023-03-27T00:58:48.780Z,98811.16
2023-03-27T01:01:19.219Z,98811.86
2023-03-27T01:03:49.147Z,98814.77
2023-03-27T01:06:19.086Z,98812.50
2023-03-27T01:08:48.268Z,98812.30
2023-03-27T01:11:43.002Z,98810.36
2023-03-27T01:14:35.441Z,98813.89
2023-03-27T01:17:23.286Z,98811.10
2023-03-27T01:20:10.122Z,98812.44
2023-03-27T01:22:47.285Z,98815.13
2023-03-27T01:25:35.484Z,98819.70
2023-03-27T01:28:12.659Z,98811.16
2023-03-27T01:30:59.388Z,98810.08
2023-03-27T01:33:46.217Z,98814.66
2023-03-27T01:36:36.223Z,98814.26
2023-03-27T01:39:27.539Z,98817.08
2023-03-27T01:42:14.438Z,98814.61
2023-03-27T01:45:21.869Z,98818.63
2023-03-27T01:48:04.736Z,98818.56
2023-03-27T01:50:32.604Z,98820.94
2023-03-27T01:53:05.286Z,98830.11
2023-03-27T01:55:39.520Z,98829.89
2023-03-27T01:58:14.101Z,98827.14
2023-03-27T02:00:52.494Z,98827.88
2023-03-27T02:03:29.835Z,98822.33
2023-03-27T02:06:06.813Z,98820.43
2023-03-27T02:08:50.411Z,98819.92
2023-03-27T02:11:25.682Z,98820.77
2023-03-27T02:14:01.312Z,98821.05
2023-03-27T02:16:34.644Z,98817.61
2023-03-27T02:19:11.019Z,98812.64
2023-03-27T02:21:39.244Z,98816.02
2023-03-27T02:24:09.091Z,98821.80
2023-03-27T02:26:38.226Z,98821.41
2023-03-27T02:29:36.976Z,98815.75
2023-03-27T02:32:29.242Z,98811.96
2023-03-27T02:35:12.800Z,98805.33
2023-03-27T02:37:55.686Z,98803.77
2023-03-27T02:41:20.722Z,98806.23
2023-03-27T02:44:21.010Z,98807.02
2023-03-27T02:47:08.664Z,98812.94
2023-03-27T02:49:46.913Z,98817.01
2023-03-27T02:52:38.712Z,98816.14
2023-03-27T02:55:13.012Z,98819.00
2023-03-27T02:57:52.589Z,98816.27
2023-03-27T03:00:42.165Z,98817.48
2023-03-27T03:03:37.694Z,98816.26
2023-03-27T03:06:16.200Z,98814.44
2023-03-27T03:08:46.751Z,98814.36
2023-03-27T03:11:15.093Z,98823.17
2023-03-27T03:13:43.688Z,98823.98
2023-03-27T03:16:11.898Z,98821.41
2023-03-27T03:18:41.256Z,98821.45
2023-03-27T03:21:09.630Z,98819.06
2023-03-27T03:23:39.199Z,98815.77
2023-03-27T03:26:08.226Z,98810.91
2023-03-27T03:29:00.790Z,98806.90
2023-03-27T03:31:43.295Z,98809.75
2023-03-27T03:34:14.794Z,98807.70
2023-03-27T03:36:44.932Z,98812.47
2023-03-27T03:39:13.231Z,98811.97
2023-03-27T03:41:43.413Z,98812.13
2023-03-27T03:44:11.657Z,98812.98
2023-03-27T03:46:40.773Z,98819.77
2023-03-27T03:49:09.054Z,98825.54
2023-03-27T03:51:38.950Z,98819.23
2023-03-27T03:54:09.276Z,98820.58
2023-03-27T03:56:41.794Z,98824.64
2023-03-27T03:59:14.782Z,98827.21
2023-03-27T04:02:53.814Z,98819.77
2023-03-27T04:05:24.018Z,98826.30
2023-03-27T04:07:53.305Z,98827.20
2023-03-27T04:10:27.814Z,98835.26
2023-03-27T04:12:57.240Z,98841.20
2023-03-27T04:15:30.565Z,98841.77
2023-03-27T04:18:01.477Z,98841.33
2023-03-27T04:20:29.825Z,98842.23
2023-03-27T04:23:02.462Z,98849.92
2023-03-27T04:25:31.579Z,98845.53
2023-03-27T04:28:04.388Z,98846.13
2023-03-27T04:34:38.430Z,98850.88
2023-03-27T04:37:10.366Z,98845.77
2023-03-27T04:39:46.414Z,98851.78
2023-03-27T04:42:14.881Z,98859.67
2023-03-27T04:44:43.511Z,98860.06
2023-03-27T04:47:11.487Z,98862.97
2023-03-27T04:49:46.784Z,98857.23
2023-03-27T04:52:21.483Z,98862.77
2023-03-27T04:54:49.439Z,98866.95
2023-03-27T04:57:19.415Z,98873.21
2023-03-27T04:59:50.416Z,98875.48
2023-03-27T05:02:37.098Z,98875.82
2023-03-27T05:05:31.909Z,98880.31
2023-03-27T05:08:01.777Z,98881.41
2023-03-27T05:10:30.038Z,98878.30
2023-03-27T05:12:58.867Z,98884.05
2023-03-27T05:15:28.125Z,98883.98
2023-03-27T05:17:56.458Z,98883.70
2023-03-27T05:20:26.876Z,98887.40
2023-03-27T05:22:59.077Z,98884.87
2023-03-27T05:25:29.353Z,98884.17
2023-03-27T05:28:00.424Z,98881.57
2023-03-27T05:30:31.867Z,98885.38
2023-03-27T05:33:14.695Z,98883.67
2023-03-27T05:35:46.440Z,98884.69
2023-03-27T05:38:15.592Z,98883.05
2023-03-27T05:40:53.785Z,98885.33
2023-03-27T05:43:23.043Z,98882.02
2023-03-27T05:45:51.547Z,98887.91
2023-03-27T05:48:19.487Z,98888.61
2023-03-27T05:50:47.851Z,98889.66
2023-03-27T05:53:20.430Z,98889.84
2023-03-27T05:56:34.879Z,98886.59
2023-03-27T05:59:04.344Z,98893.42
2023-03-27T06:01:37.667Z,98890.35
2023-03-27T06:04:09.530Z,98895.48
2023-03-27T06:07:28.652Z,98898.91
2023-03-27T06:09:58.412Z,98895.14
2023-03-27T06:12:46.415Z,98899.77
2023-03-27T06:15:25.920Z,98907.66
2023-03-27T06:18:16.732Z,98915.87
2023-03-27T06:20:45.010Z,98914.52
2023-03-27T06:23:13.417Z,98922.40
2023-03-27T06:25:43.601Z,98923.07
2023-03-27T06:28:12.314Z,98925.30
2023-03-27T06:30:50.730Z,98931.66
2023-03-27T06:33:27.845Z,98928.91
2023-03-27T06:36:01.013Z,98934.40
2023-03-27T06:38:34.619Z,98941.25
2023-03-27T06:41:02.929Z,98946.73
2023-03-27T06:43:47.983Z,98943.31
2023-03-27T06:46:42.731Z,98944.86
2023-03-27T06:49:31.717Z,98949.84
2023-03-27T06:52:00.711Z,98953.44
2023-03-27T06:54:29.409Z,98954.48
2023-03-27T06:56:57.509Z,98953.27
2023-03-27T06:59:26.387Z,98952.60
2023-03-27T07:02:17.842Z,98947.96
2023-03-27T07:05:08.399Z,98949.48
2023-03-27T07:07:41.875Z,98955.80
2023-03-27T07:10:11.791Z,98953.13
2023-03-27T07:12:41.561Z,98956.98
2023-03-27T07:15:10.680Z,98956.41
2023-03-27T07:17:48.699Z,98953.66
2023-03-27T07:20:19.777Z,98955.67
2023-03-27T07:22:48.325Z,98958.53
2023-03-27T07:25:37.441Z,98956.05
2023-03-27T07:28:10.689Z,98957.41
2023-03-27T07:30:39.982Z,98961.14
2023-03-27T07:33:11.270Z,98967.70
2023-03-27T07:35:44.185Z,98968.90
2023-03-27T07:38:42.298Z,98974.22
2023-03-27T07:41:26.266Z,98974.73
2023-03-27T07:44:01.018Z,98985.42
2023-03-27T07:46:35.603Z,98988.95
2023-03-27T07:49:04.940Z,98988.45
2023-03-27T07:51:33.183Z,98991.63
2023-03-27T07:54:04.309Z,98997.20
2023-03-27T07:56:35.951Z,99002.84
2023-03-27T07:59:22.744Z,99010.19
2023-03-27T08:01:51.903Z,99011.53
2023-03-27T08:04:20.825Z,99010.65
2023-03-27T08:07:10.126Z,99017.29
2023-03-27T08:09:39.115Z,99017.44
2023-03-27T08:12:08.073Z,99027.70
2023-03-27T08:14:41.630Z,99019.95
2023-03-27T08:17:30.133Z,99025.60
2023-03-27T08:19:59.624Z,99033.64
2023-03-27T08:22:28.695Z,99038.88
2023-03-27T08:25:35.630Z,99045.54
2023-03-27T08:28:07.372Z,99049.69
2023-03-27T08:30:35.677Z,99055.71
2023-03-27T08:33:04.040Z,99057.06
2023-03-27T08:35:33.798Z,99058.86
2023-03-27T08:38:03.868Z,99055.55
2023-03-27T08:40:38.696Z,99054.52
2023-03-27T08:43:26.591Z,99062.46
2023-03-27T08:46:00.624Z,99064.08
2023-03-27T08:48:52.049Z,99066.81
2023-03-27T08:51:28.138Z,99077.11
2023-03-27T08:54:03.478Z,99076.49
2023-03-27T08:56:32.271Z,99077.21
2023-03-27T08:59:01.863Z,99075.36
2023-03-27T09:01:48.108Z,99075.19
2023-03-27T09:04:17.670Z,99074.29
2023-03-27T09:07:07.119Z,99074.83
2023-03-27T09:09:46.735Z,99077.61
2023-03-27T09:12:17.580Z,99083.91
2023-03-27T09:14:57.589Z,99085.86
2023-03-27T09:17:37.785Z,99090.43
2023-03-27T09:20:23.562Z,99092.52
2023-03-27T09:22:55.318Z,99096.61
2023-03-27T09:26:09.563Z,99106.75
2023-03-27T09:29:25.790Z,99103.63
2023-03-27T09:32:16.234Z,99111.21
2023-03-27T09:34:45.184Z,99112.90
2023-03-27T09:37:17.490Z,99110.31
2023-03-27T09:39:52.379Z,99114.78
2023-03-27T09:42:33.264Z,99116.98
2023-03-27T09:45:08.118Z,99122.95
2023-03-27T09:47:56.960Z,99119.09
2023-03-27T09:50:44.475Z,99130.51
2023-03-27T09:53:36.271Z,99131.95
2023-03-27T09:56:16.195Z,99138.02
2023-03-27T09:58:49.371Z,99143.05
2023-03-27T10:01:31.159Z,99146.36
2023-03-27T10:04:19.069Z,99146.21
2023-03-27T10:07:01.903Z,99150.02
2023-03-27T10:10:15.690Z,99151.77
2023-03-27T10:13:11.273Z,99150.75
2023-03-27T10:15:44.382Z,99153.03
2023-03-27T10:18:27.492Z,99157.87
2023-03-27T10:21:47.649Z,99164.59
2023-03-27T10:24:46.181Z,99167.17
2023-03-27T10:27:33.985Z,99170.77
2023-03-27T10:30:27.456Z,99168.37
2023-03-27T10:32:59.381Z,99173.52
2023-03-27T10:35:49.071Z,99171.63
2023-03-27T10:38:28.738Z,99179.20
2023-03-27T10:41:12.077Z,99182.27
2023-03-27T10:43:47.984Z,99181.76
2023-03-27T10:46:23.729Z,99178.51
2023-03-27T10:49:01.135Z,99173.70
2023-03-27T10:51:53.873Z,99174.55
2023-03-27T10:54:43.068Z,99181.77
2023-03-27T10:57:30.872Z,99188.81
2023-03-27T11:04:45.420Z,99186.08
2023-03-27T11:07:50.387Z,99190.88
2023-03-27T11:10:36.769Z,99193.80
2023-03-27T11:13:14.578Z,99192.95
2023-03-27T11:15:51.044Z,99186.24
2023-03-27T11:18:45.510Z,99180.50
2023-03-27T11:21:38.703Z,99176.76
2023-03-27T11:24:17.616Z,99171.89
2023-03-27T11:27:03.693Z,99170.17
2023-03-27T11:29:44.283Z,99172.52
2023-03-27T11:32:29.296Z,99171.63
2023-03-27T11:35:21.549Z,99164.15
2023-03-27T11:38:06.496Z,99171.87
2023-03-27T11:40:46.454Z,99170.34
2023-03-27T11:43:16.674Z,99173.53
2023-03-27T11:46:08.992Z,99171.66
2023-03-27T11:48:46.537Z,99175.46
2023-03-27T11:51:38.050Z,99173.73
2023-03-27T11:54:18.113Z,99174.41
2023-03-27T11:57:03.405Z,99172.96
2023-03-27T11:59:51.390Z,99176.55
2023-03-27T12:02:37.438Z,99174.67
2023-03-27T12:05:20.905Z,99171.06
2023-03-27T12:07:54.427Z,99171.72
2023-03-27T12:10:34.985Z,99174.29
2023-03-27T12:14:01.693Z,99173.14
2023-03-27T12:16:56.385Z,99177.09
2023-03-27T12:19:29.690Z,99176.19
2023-03-27T12:23:02.748Z,99174.20
2023-03-27T12:26:21.956Z,99174.70
2023-03-27T12:29:23.358Z,99175.86
2023-03-27T12:32:41.080Z,99177.45
2023-03-27T12:35:31.230Z,99182.05
2023-03-27T12:38:07.620Z,99183.23
2023-03-27T12:40:48.514Z,99187.79
2023-03-27T12:43:30.546Z,99189.55
2023-03-27T12:46:37.404Z,99194.39
2023-03-27T12:49:10.812Z,99192.68
2023-03-27T12:51:54.183Z,99198.02
2023-03-27T12:54:41.102Z,99201.26
2023-03-27T12:57:46.068Z,99204.30
2023-03-27T13:00:28.847Z,99204.62
2023-03-27T13:03:25.857Z,99211.85
2023-03-27T13:06:00.585Z,99218.59
2023-03-27T13:08:34.462Z,99222.23
2023-03-27T13:11:17.950Z,99224.66
2023-03-27T13:14:24.241Z,99226.21
2023-03-27T13:17:01.945Z,99228.61
2023-03-27T13:19:34.142Z,99237.37
2023-03-27T13:22:25.432Z,99243.34
2023-03-27T13:25:09.991Z,99246.59
2023-03-27T13:27:49.671Z,99240.06
2023-03-27T13:30:43.638Z,99246.65
2023-03-27T13:33:31.822Z,99249.59
2023-03-27T13:36:22.839Z,99254.24
2023-03-27T13:38:51.933Z,99257.88
2023-03-27T13:41:45.107Z,99261.15
2023-03-27T13:44:57.885Z,99271.48
2023-03-27T13:47:33.564Z,99274.58
2023-03-27T13:50:16.696Z,99279.89
2023-03-27T13:53:03.653Z,99285.54
2023-03-27T13:56:17.092Z,99292.38
2023-03-27T13:59:39.230Z,99300.79
2023-03-27T14:02:16.476Z,99317.94
2023-03-27T14:04:59.400Z,99319.48
2023-03-27T14:08:09.049Z,99315.20
2023-03-27T14:11:18.657Z,99333.41
2023-03-27T14:13:54.638Z,99330.70
2023-03-27T14:16:53.348Z,99335.53
2023-03-27T14:19:58.020Z,99333.14
2023-03-27T14:22:43.209Z,99334.17
2023-03-27T14:25:25.530Z,99335.58
2023-03-27T14:27:59.977Z,99332.99
2023-03-27T14:30:30.798Z,99337.64
2023-03-27T14:33:23.861Z,99341.22
2023-03-27T14:36:03.368Z,99350.48
2023-03-27T14:38:34.112Z,99352.36
2023-03-27T14:41:04.737Z,99359.91
2023-03-27T14:43:51.590Z,99362.63
2023-03-27T14:46:23.628Z,99368.30
2023-03-27T14:48:56.855Z,99369.29
2023-03-27T14:51:37.630Z,99376.47
2023-03-27T14:54:14.417Z,99389.27
2023-03-27T14:56:53.875Z,99395.65
2023-03-27T14:59:26.924Z,99399.83
2023-03-27T15:02:02.215Z,99408.80
2023-03-27T15:04:32.927Z,99408.71
2023-03-27T15:07:19.984Z,99412.39
2023-03-27T15:10:06.408Z,99412.67
2023-03-27T15:13:00.177Z,99424.86
2023-03-27T15:15:42.715Z,99432.79
2023-03-27T15:18:22.789Z,99445.61
2023-03-27T15:20:52.935Z,99448.69
2023-03-27T15:23:30.017Z,99448.36
2023-03-27T15:26:03.666Z,99458.98
2023-03-27T15:29:01.469Z,99463.89
2023-03-27T15:31:33.103Z,99466.97
2023-03-27T15:34:15.693Z,99470.91
2023-03-27T15:36:58.315Z,99474.16
2023-03-27T15:39:26.921Z,99474.84
2023-03-27T15:42:05.363Z,99477.25
2023-03-27T15:44:34.191Z,99473.14
2023-03-27T15:47:02.974Z,99476.66
2023-03-27T15:49:33.454Z,99482.80
2023-03-27T15:52:28.516Z,99481.20
2023-03-27T15:54:56.999Z,99483.98
2023-03-27T15:57:27.061Z,99494.79
2023-03-27T16:00:00.557Z,99497.23
2023-03-27T16:02:32.683Z,99494.10
2023-03-27T16:05:01.409Z,99505.77
2023-03-27T16:07:38.956Z,99512.09
2023-03-27T16:10:07.797Z,99510.89
2023-03-27T16:13:01.960Z,99519.27
2023-03-27T16:15:36.799Z,99519.25
2023-03-27T16:18:19.215Z,99523.71
2023-03-27T16:20:47.882Z,99534.17
2023-03-27T16:23:15.865Z,99538.99
2023-03-27T16:25:44.530Z,99540.64
2023-03-27T16:28:14.239Z,99545.08
2023-03-27T16:30:42.456Z,99548.11
2023-03-27T16:33:21.251Z,99554.56
2023-03-27T16:35:50.454Z,99559.13
2023-03-27T16:38:18.613Z,99571.25
2023-03-27T16:40:46.746Z,99575.66
2023-03-27T16:43:14.995Z,99580.92
2023-03-27T16:45:43.016Z,99588.48
2023-03-27T16:48:11.740Z,99592.89
2023-03-27T16:50:40.414Z,99600.36
2023-03-27T16:53:08.684Z,99610.55
2023-03-27T16:55:38.862Z,99616.02
2023-03-27T16:58:07.263Z,99616.67
2023-03-27T17:00:36.003Z,99620.52
2023-03-27T17:03:04.364Z,99620.25
2023-03-27T17:05:34.493Z,99628.69
2023-03-27T17:08:03.699Z,99632.65
2023-03-27T17:10:32.797Z,99640.39
2023-03-27T17:13:00.864Z,99648.98
2023-03-27T17:15:29.008Z,99656.73
2023-03-27T17:17:57.344Z,99659.38
2023-03-27T17:20:25.409Z,99656.27
2023-03-27T17:22:53.651Z,99660.38
2023-03-27T17:25:22.165Z,99667.07
2023-03-27T17:27:50.663Z,99673.14
2023-03-27T17:30:30.543Z,99681.60
2023-03-27T17:33:05.263Z,99675.73
2023-03-27T17:35:34.328Z,99679.05
2023-03-27T17:38:03.644Z,99684.81
2023-03-27T17:40:32.097Z,99689.69
2023-03-27T17:43:00.760Z,99696.95
2023-03-27T17:45:29.439Z,99706.09
2023-03-27T17:47:58.045Z,99698.14
2023-03-27T17:50:26.175Z,99711.58
2023-03-27T17:52:54.376Z,99717.52
2023-03-27T17:55:22.720Z,99720.48
2023-03-27T17:58:01.850Z,99728.03
2023-03-27T18:00:31.778Z,99733.48
2023-03-27T18:02:59.792Z,99737.80
2023-03-27T18:05:28.235Z,99742.77
2023-03-27T18:07:56.468Z,99738.38
2023-03-27T18:10:26.136Z,99745.59
2023-03-27T18:12:54.807Z,99747.38
2023-03-27T18:15:22.898Z,99755.55
2023-03-27T18:17:51.389Z,99760.27
2023-03-27T18:20:19.581Z,99761.23
2023-03-27T18:22:47.945Z,99767.02
2023-03-27T18:25:16.177Z,99771.88
2023-03-27T18:27:45.096Z,99778.15
2023-03-27T18:30:15.375Z,99774.69
2023-03-27T18:32:45.681Z,99776.65
2023-03-27T18:35:16.744Z,99774.92
2023-03-27T18:37:46.834Z,99783.30
2023-03-27T18:40:17.242Z,99788.78
2023-03-27T18:42:45.390Z,99790.88
2023-03-27T18:45:16.804Z,99793.14
2023-03-27T18:47:45.416Z,99795.73
2023-03-27T18:50:15.317Z,99799.55
2023-03-27T18:52:44.045Z,99797.73
2023-03-27T18:55:13.113Z,99795.58
2023-03-27T18:57:41.287Z,99796.98
2023-03-27T19:04:36.121Z,99805.06
2023-03-27T19:07:04.115Z,99803.89
2023-03-27T19:09:40.850Z,99808.45
2023-03-27T19:12:10.776Z,99813.31
2023-03-27T19:15:00.451Z,99815.26
2023-03-27T19:18:02.394Z,99819.77
2023-03-27T19:20:49.835Z,99820.92
2023-03-27T19:23:45.519Z,99823.71
2023-03-27T19:26:17.165Z,99823.83
2023-03-27T19:28:49.127Z,99827.52
2023-03-27T19:31:17.722Z,99826.06
2023-03-27T19:33:46.326Z,99832.45
2023-03-27T19:36:14.575Z,99837.48
2023-03-27T19:38:42.795Z,99831.73
2023-03-27T19:41:11.633Z,99835.71
2023-03-27T19:43:39.824Z,99841.30
2023-03-27T19:46:16.231Z,99843.33
2023-03-27T19:48:45.736Z,99847.86
2023-03-27T19:51:21.806Z,99845.54
2023-03-27T19:53:52.626Z,99845.18
2023-03-27T19:56:23.466Z,99846.56
2023-03-27T19:58:52.399Z,99848.59
2023-03-27T20:01:21.881Z,99851.17
2023-03-27T20:03:50.540Z,99853.57
2023-03-27T20:06:18.977Z,99853.62
2023-03-27T20:08:47.203Z,99858.35
2023-03-27T20:11:16.957Z,99861.45
2023-03-27T20:13:55.236Z,99865.70
2023-03-27T20:16:27.493Z,99864.38
2023-03-27T20:19:03.912Z,99866.54
2023-03-27T20:21:37.795Z,99878.63
2023-03-27T20:24:10.117Z,99884.59
2023-03-27T20:26:42.085Z,99883.58
2023-03-27T20:29:17.077Z,99883.02
2023-03-27T20:31:46.792Z,99878.16
2023-03-27T20:34:20.039Z,99883.39
2023-03-27T20:36:53.648Z,99879.63
2023-03-27T20:39:47.399Z,99878.23
2023-03-27T20:42:18.122Z,99881.75
2023-03-27T20:44:47.163Z,99880.52
2023-03-27T20:47:19.136Z,99884.39
2023-03-27T20:49:48.945Z,99885.52
2023-03-27T20:52:19.502Z,99886.55
2023-03-27T20:54:47.955Z,99887.41
2023-03-27T20:57:17.812Z,99884.88
2023-03-27T20:59:48.269Z,99885.08
2023-03-27T21:02:19.253Z,99881.67
2023-03-27T21:04:48.190Z,99883.06
2023-03-27T21:07:16.832Z,99884.05
2023-03-27T21:09:46.768Z,99883.20
2023-03-27T21:12:14.814Z,99887.95
2023-03-27T21:14:42.956Z,99889.66
2023-03-27T21:17:12.903Z,99892.52
2023-03-27T21:19:41.114Z,99885.55
2023-03-27T21:22:09.355Z,99891.95
2023-03-27T21:24:37.499Z,99888.89
2023-03-27T21:27:06.040Z,99885.12
2023-03-27T21:29:34.269Z,99885.68
2023-03-27T21:32:02.355Z,99885.02
2023-03-27T21:34:30.819Z,99886.54
2023-03-27T21:36:58.894Z,99888.09
2023-03-27T21:39:27.270Z,99889.11
2023-03-27T21:41:55.570Z,99892.29
2023-03-27T21:44:23.572Z,99894.77
2023-03-27T21:46:51.618Z,99890.14
2023-03-27T21:49:19.682Z,99889.59
2023-03-27T21:51:47.879Z,99889.44
2023-03-27T21:54:16.173Z,99881.21
2023-03-27T21:56:44.242Z,99885.65
2023-03-27T21:59:12.313Z,99887.23
2023-03-27T22:01:40.314Z,99885.66
2023-03-27T22:04:08.352Z,99883.06
2023-03-27T22:06:36.722Z,99882.92
2023-03-27T22:09:04.790Z,99881.43
2023-03-27T22:11:33.000Z,99880.98
2023-03-27T22:14:01.255Z,99882.54
2023-03-27T22:16:29.502Z,99882.73
2023-03-27T22:18:57.500Z,99884.13
2023-03-27T22:21:29.958Z,99883.67
2023-03-27T22:23:59.254Z,99882.39
2023-03-27T22:26:33.503Z,99882.16
2023-03-27T22:29:02.089Z,99883.73
2023-03-27T22:31:30.711Z,99880.16
2023-03-27T22:34:00.299Z,99878.63
2023-03-27T22:36:28.561Z,99877.34
2023-03-27T22:38:56.766Z,99878.30
2023-03-27T22:41:25.837Z,99880.42
2023-03-27T22:43:54.121Z,99879.89
2023-03-27T22:46:23.841Z,99879.78
2023-03-27T22:48:56.567Z,99879.87
2023-03-27T22:51:25.554Z,99883.27
2023-03-27T22:53:53.848Z,99883.51
2023-03-27T22:56:21.923Z,99887.26
2023-03-27T22:58:50.165Z,99888.70
2023-03-27T23:01:18.337Z,99893.04
2023-03-27T23:03:46.824Z,99892.10
2023-03-27T23:06:21.340Z,99890.70
2023-03-27T23:08:50.116Z,99894.63
2023-03-27T23:11:19.401Z,99900.52
2023-03-27T23:13:48.422Z,99903.70
2023-03-27T23:16:16.544Z,99904.88
2023-03-27T23:18:44.671Z,99904.11
2023-03-27T23:21:14.293Z,99906.52
2023-03-27T23:23:42.848Z,99912.13
2023-03-27T23:26:12.977Z,99913.98
2023-03-27T23:28:42.237Z,99919.09
2023-03-27T23:31:13.897Z,99920.29
2023-03-27T23:33:47.832Z,99920.30
2023-03-27T23:36:24.970Z,99916.39
2023-03-27T23:38:53.963Z,99921.18
2023-03-27T23:41:23.038Z,99917.23
2023-03-27T23:43:51.230Z,99921.16
2023-03-27T23:46:19.775Z,99924.80
2023-03-27T23:48:47.968Z,99924.40
2023-03-27T23:51:17.061Z,99924.88
2023-03-27T23:53:45.509Z,99923.30
2023-03-27T23:56:13.642Z,99924.97
2023-03-27T23:58:41.859Z,99923.35
